Terminal Aerodrome Forecast
Issued by NWS Missoula, MT

Home | Current Version | Previous Version | Text Only | Print | Product List | Glossary On
Versions: 1 2 3 4 5 6 7 8 9 10 11 12 13 14 15 16
000
FTUS45 KMSO 250119 AAA
TAFMSO
TAF AMD
KMSO 250119Z 2501/2524 30010G20KT 5SM FU SCT150
     FM250400 31008KT 6SM FU SKC
     FM251500 12006KT P6SM SKC=

USA.gov is the U.S. government's official web portal to all federal, state and local government web resources and services.